CheckWX is a tool to help pilots better visualize weather data.  It is not intended as a substitute for an official pre-flight weather briefing.

06:26:20 UTC

KRWI TAF
Rocky Mount-Wilson Regional Airport
Rocky Mount, North Carolina, USA
KRWI 260523Z 2606/2706 VRB03KT P6SM BKN250 FM261800 01005KT P6SM SCT250

Jun-26@
06:00 UTC

Jun-26 @ 06:00 UTC

Jun-26@
18:00 UTC

Jun-26 @ 18:00 UTC

KRWI 260523Z 2606/2706 VRB03KT P6SM BKN250
Wind
  • Variable at 3 KTS
Cloud Levels
  • Broken at 25,000' AGL

Jun-26@
18:00 UTC

Jun-26 @ 18:00 UTC

Jun-27@
06:00 UTC

Jun-27 @ 06:00 UTC

FM261800 01005KT P6SM SCT250

From

From Standard forecast or significant change

Wind
  • 010° at 5 KTS
Cloud Levels
  • Scattered at 25,000' AGL